San Acacia, NM (87831)

6:29 AM MDT on October 24, 2014 (GMT -0600)
Community Road | Change Station
CLOSE
Current Station
Personal Weather Station
Location: Polvadera, NM
Elevation: 4645 ft
Nearby Weather Stations

Elev 4645 ft 34.20 °N, 106.91 °W | Updated 2 seconds ago

Clear
Clear
43.2 °F
Feels Like 43 °F
N
0.4
Wind Variable Wind from NNW
Gusts 0.7 mph

Today
High -- | Low -- °F
--% Chance of Precip.
Yesterday
High -- | Low -- °F
Precip. -- in
7:20 AM 6:22 PM
New Moon, 0% visible
Pressure 30.27 in
Visibility 10.0 miles
Clouds Clear
Windchill 43 °F
Dew Point 39 °F
Humidity 85%
Rainfall 0.00 in
Snow Depth Not available.
UV 0 out of 12
Pollen 3.50 out of 12
Air Quality Not available.
Flu Activity Sporadic
METAR KONM 241215Z AUTO 00000KT 10SM CLR 08/05 A3027 RMK AO2 T00760053

More Conditions Fewer Conditions

Pressure 30.27 in
Visibility 10.0 miles
Clouds Clear
Windchill 43 °F
Dew Point 39 °F
Humidity 85%
Rainfall 0.00 in
Snow Depth Not available.
UV 0 out of 12
Pollen 3.50 out of 12
Air Quality Not available.
Flu Activity Sporadic
METAR KONM 241215Z AUTO 00000KT 10SM CLR 08/05 A3027 RMK AO2 T00760053

More Conditions Fewer Conditions

10-Day Weather Forecast

Almanac

Astronomy

Oct. 24, 2014 Rise Set
Actual Time 7:20 AM MDT 6:22 PM MDT
Civil Twilight 6:54 AM MDT 6:48 PM MDT
Nautical Twilight 6:25 AM MDT 7:17 PM MDT
Astronomical Twilight 5:56 AM MDT 7:46 PM MDT
Moon 8:00 AM MDT 7:06 PM MDT
Length of Visible Light 11h 53m
Length of Day
11h 02m
Tomorrow will be 1m 57s shorter.
New Moon, 0% of the Moon is Illuminated
Today
New Moon
Oct 30
First Quarter
Nov 6
Full
Nov 14
Last Quarter
Nov 22
New

Today's Extremes

State Highs State Lows

Community

WunderPhotos

Upload Photos

1,764,533 photos uploaded!

Nearby

Snow Depth

Station Depth Elevation
Lookout Mountain 0 in 8500 ft
Sierra Blanca 0 in 10280 ft
McKnight Cabin 0 in 9240 ft
Rice Park 0 in 8460 ft
Signal Peak 0 in 8360 ft

Earthquake Activity

City Distance Mag. Time & Date
No recent earthquake activity has been reported nearby.
Minimum magnitude displayed is 2.5.

Coastal Water Temperatures

Place Temperature
No Stations Reporting

Nearby Weather Stations